sensor_id;sensor_type;location;lat;lon;timestamp;P1;durP1;ratioP1;P2;durP2;ratioP2
14381;SDS011;7275;50.328;8.720;2023-08-30T00:00:23;1.50;;;1.40;;
14381;SDS011;7275;50.328;8.720;2023-08-30T00:02:51;1.60;;;1.50;;
14381;SDS011;7275;50.328;8.720;2023-08-30T00:05:19;1.90;;;1.53;;
14381;SDS011;7275;50.328;8.720;2023-08-30T00:07:46;2.90;;;1.80;;
14381;SDS011;7275;50.328;8.720;2023-08-30T00:10:14;2.03;;;1.60;;
14381;SDS011;7275;50.328;8.720;2023-08-30T00:12:45;1.80;;;1.60;;
14381;SDS011;7275;50.328;8.720;2023-08-30T00:15:14;1.57;;;1.47;;
14381;SDS011;7275;50.328;8.720;2023-08-30T00:17:42;2.10;;;1.60;;
14381;SDS011;7275;50.328;8.720;2023-08-30T00:20:10;1.70;;;1.60;;
14381;SDS011;7275;50.328;8.720;2023-08-30T00:22:39;1.80;;;1.70;;
14381;SDS011;7275;50.328;8.720;2023-08-30T00:25:07;2.27;;;1.80;;
14381;SDS011;7275;50.328;8.720;2023-08-30T00:27:35;3.43;;;1.90;;
14381;SDS011;7275;50.328;8.720;2023-08-30T00:30:03;2.47;;;1.77;;
14381;SDS011;7275;50.328;8.720;2023-08-30T00:32:32;1.93;;;1.70;;
14381;SDS011;7275;50.328;8.720;2023-08-30T00:35:00;1.83;;;1.67;;
14381;SDS011;7275;50.328;8.720;2023-08-30T00:37:27;1.80;;;1.70;;
14381;SDS011;7275;50.328;8.720;2023-08-30T00:39:55;2.00;;;1.87;;
14381;SDS011;7275;50.328;8.720;2023-08-30T00:42:22;3.10;;;1.90;;
14381;SDS011;7275;50.328;8.720;2023-08-30T00:44:50;1.80;;;1.70;;
14381;SDS011;7275;50.328;8.720;2023-08-30T00:47:17;3.40;;;1.73;;
14381;SDS011;7275;50.328;8.720;2023-08-30T00:49:46;2.30;;;1.93;;
14381;SDS011;7275;50.328;8.720;2023-08-30T00:52:14;3.30;;;2.00;;
14381;SDS011;7275;50.328;8.720;2023-08-30T00:54:42;2.93;;;2.00;;
14381;SDS011;7275;50.328;8.720;2023-08-30T00:57:10;2.23;;;1.97;;
14381;SDS011;7275;50.328;8.720;2023-08-30T00:59:38;1.80;;;1.70;;
14381;SDS011;7275;50.328;8.720;2023-08-30T01:02:06;2.27;;;2.07;;
14381;SDS011;7275;50.328;8.720;2023-08-30T01:04:33;3.90;;;2.00;;
14381;SDS011;7275;50.328;8.720;2023-08-30T01:07:03;3.03;;;1.97;;
14381;SDS011;7275;50.328;8.720;2023-08-30T01:09:30;2.80;;;2.00;;
14381;SDS011;7275;50.328;8.720;2023-08-30T01:12:00;2.33;;;2.10;;
14381;SDS011;7275;50.328;8.720;2023-08-30T01:14:34;2.20;;;2.00;;
14381;SDS011;7275;50.328;8.720;2023-08-30T01:17:07;2.10;;;1.90;;
14381;SDS011;7275;50.328;8.720;2023-08-30T01:19:42;2.37;;;1.93;;
14381;SDS011;7275;50.328;8.720;2023-08-30T01:22:19;1.90;;;1.77;;
14381;SDS011;7275;50.328;8.720;2023-08-30T01:24:55;2.10;;;1.80;;
14381;SDS011;7275;50.328;8.720;2023-08-30T01:27:35;2.23;;;1.77;;
14381;SDS011;7275;50.328;8.720;2023-08-30T01:30:05;2.00;;;1.83;;
14381;SDS011;7275;50.328;8.720;2023-08-30T01:32:34;2.27;;;1.80;;
14381;SDS011;7275;50.328;8.720;2023-08-30T01:35:03;2.23;;;1.70;;
14381;SDS011;7275;50.328;8.720;2023-08-30T01:37:32;2.07;;;1.87;;
14381;SDS011;7275;50.328;8.720;2023-08-30T01:40:00;2.03;;;1.80;;
14381;SDS011;7275;50.328;8.720;2023-08-30T01:42:30;2.90;;;1.97;;
14381;SDS011;7275;50.328;8.720;2023-08-30T01:45:01;2.30;;;2.10;;
14381;SDS011;7275;50.328;8.720;2023-08-30T01:47:30;3.10;;;2.20;;
14381;SDS011;7275;50.328;8.720;2023-08-30T01:49:59;2.00;;;1.80;;
14381;SDS011;7275;50.328;8.720;2023-08-30T01:52:29;2.57;;;1.77;;
14381;SDS011;7275;50.328;8.720;2023-08-30T01:54:59;3.23;;;1.90;;
14381;SDS011;7275;50.328;8.720;2023-08-30T01:57:29;2.97;;;1.90;;
14381;SDS011;7275;50.328;8.720;2023-08-30T01:59:56;2.83;;;2.00;;
14381;SDS011;7275;50.328;8.720;2023-08-30T02:02:27;3.93;;;1.70;;
14381;SDS011;7275;50.328;8.720;2023-08-30T02:04:55;3.63;;;1.87;;
14381;SDS011;7275;50.328;8.720;2023-08-30T02:07:24;2.67;;;1.80;;
14381;SDS011;7275;50.328;8.720;2023-08-30T02:09:57;2.77;;;1.80;;
14381;SDS011;7275;50.328;8.720;2023-08-30T02:12:27;3.73;;;1.73;;
14381;SDS011;7275;50.328;8.720;2023-08-30T02:15:02;1.80;;;1.70;;
14381;SDS011;7275;50.328;8.720;2023-08-30T02:17:35;4.03;;;1.77;;
14381;SDS011;7275;50.328;8.720;2023-08-30T02:20:05;1.77;;;1.67;;
14381;SDS011;7275;50.328;8.720;2023-08-30T02:22:33;2.60;;;1.60;;
14381;SDS011;7275;50.328;8.720;2023-08-30T02:25:01;2.30;;;1.43;;
14381;SDS011;7275;50.328;8.720;2023-08-30T02:27:30;2.47;;;1.43;;
14381;SDS011;7275;50.328;8.720;2023-08-30T02:29:58;1.97;;;1.70;;
14381;SDS011;7275;50.328;8.720;2023-08-30T02:32:25;2.50;;;1.77;;
14381;SDS011;7275;50.328;8.720;2023-08-30T02:34:55;2.30;;;1.70;;
14381;SDS011;7275;50.328;8.720;2023-08-30T02:37:24;2.53;;;1.67;;
14381;SDS011;7275;50.328;8.720;2023-08-30T02:39:51;1.80;;;1.70;;
14381;SDS011;7275;50.328;8.720;2023-08-30T02:42:19;3.70;;;1.50;;
14381;SDS011;7275;50.328;8.720;2023-08-30T02:44:46;1.40;;;1.30;;
14381;SDS011;7275;50.328;8.720;2023-08-30T02:47:14;1.80;;;1.60;;
14381;SDS011;7275;50.328;8.720;2023-08-30T02:49:41;2.67;;;1.50;;
14381;SDS011;7275;50.328;8.720;2023-08-30T02:52:10;1.70;;;1.60;;
14381;SDS011;7275;50.328;8.720;2023-08-30T02:54:38;3.57;;;1.90;;
14381;SDS011;7275;50.328;8.720;2023-08-30T02:57:05;2.00;;;1.80;;
14381;SDS011;7275;50.328;8.720;2023-08-30T02:59:33;1.70;;;1.60;;
14381;SDS011;7275;50.328;8.720;2023-08-30T03:02:00;3.07;;;1.80;;
14381;SDS011;7275;50.328;8.720;2023-08-30T03:04:28;2.00;;;1.87;;
14381;SDS011;7275;50.328;8.720;2023-08-30T03:06:56;2.33;;;1.80;;
14381;SDS011;7275;50.328;8.720;2023-08-30T03:09:25;2.30;;;1.80;;
14381;SDS011;7275;50.328;8.720;2023-08-30T03:11:52;2.10;;;1.77;;
14381;SDS011;7275;50.328;8.720;2023-08-30T03:14:20;3.27;;;2.03;;
14381;SDS011;7275;50.328;8.720;2023-08-30T03:16:47;2.33;;;1.80;;
14381;SDS011;7275;50.328;8.720;2023-08-30T03:19:15;2.20;;;1.97;;
14381;SDS011;7275;50.328;8.720;2023-08-30T03:21:43;2.47;;;2.00;;
14381;SDS011;7275;50.328;8.720;2023-08-30T03:24:11;2.40;;;2.20;;
14381;SDS011;7275;50.328;8.720;2023-08-30T03:26:42;2.90;;;2.07;;
14381;SDS011;7275;50.328;8.720;2023-08-30T03:29:10;2.20;;;2.00;;
14381;SDS011;7275;50.328;8.720;2023-08-30T03:31:37;2.50;;;2.23;;
14381;SDS011;7275;50.328;8.720;2023-08-30T03:34:05;2.37;;;2.03;;
14381;SDS011;7275;50.328;8.720;2023-08-30T03:36:32;2.20;;;2.00;;
14381;SDS011;7275;50.328;8.720;2023-08-30T03:39:00;3.23;;;2.20;;
14381;SDS011;7275;50.328;8.720;2023-08-30T03:41:29;2.37;;;2.17;;
14381;SDS011;7275;50.328;8.720;2023-08-30T03:43:57;2.37;;;2.17;;
14381;SDS011;7275;50.328;8.720;2023-08-30T03:46:25;3.23;;;2.00;;
14381;SDS011;7275;50.328;8.720;2023-08-30T03:48:53;2.07;;;1.90;;
14381;SDS011;7275;50.328;8.720;2023-08-30T03:51:20;2.33;;;2.13;;
14381;SDS011;7275;50.328;8.720;2023-08-30T03:53:48;2.23;;;1.97;;
14381;SDS011;7275;50.328;8.720;2023-08-30T03:56:15;3.37;;;2.20;;
14381;SDS011;7275;50.328;8.720;2023-08-30T03:58:44;3.23;;;2.00;;
14381;SDS011;7275;50.328;8.720;2023-08-30T04:01:13;2.33;;;2.10;;
14381;SDS011;7275;50.328;8.720;2023-08-30T04:03:40;2.53;;;2.33;;
14381;SDS011;7275;50.328;8.720;2023-08-30T04:06:08;2.90;;;1.90;;
14381;SDS011;7275;50.328;8.720;2023-08-30T04:08:36;3.17;;;2.17;;
14381;SDS011;7275;50.328;8.720;2023-08-30T04:11:03;2.50;;;2.30;;
14381;SDS011;7275;50.328;8.720;2023-08-30T04:13:31;2.50;;;2.30;;
14381;SDS011;7275;50.328;8.720;2023-08-30T04:15:59;4.20;;;2.40;;
14381;SDS011;7275;50.328;8.720;2023-08-30T04:18:28;2.90;;;2.20;;
14381;SDS011;7275;50.328;8.720;2023-08-30T04:20:58;2.30;;;2.10;;
14381;SDS011;7275;50.328;8.720;2023-08-30T04:23:28;3.33;;;2.30;;
14381;SDS011;7275;50.328;8.720;2023-08-30T04:25:55;3.70;;;2.27;;
14381;SDS011;7275;50.328;8.720;2023-08-30T04:28:23;2.57;;;2.33;;
14381;SDS011;7275;50.328;8.720;2023-08-30T04:30:53;2.30;;;2.07;;
14381;SDS011;7275;50.328;8.720;2023-08-30T04:33:20;3.60;;;2.10;;
14381;SDS011;7275;50.328;8.720;2023-08-30T04:35:51;7.20;;;2.47;;
14381;SDS011;7275;50.328;8.720;2023-08-30T04:38:19;2.53;;;2.13;;
14381;SDS011;7275;50.328;8.720;2023-08-30T04:40:47;2.90;;;2.30;;
14381;SDS011;7275;50.328;8.720;2023-08-30T04:43:15;2.43;;;2.23;;
14381;SDS011;7275;50.328;8.720;2023-08-30T04:45:42;2.63;;;2.30;;
14381;SDS011;7275;50.328;8.720;2023-08-30T04:48:12;2.60;;;2.40;;
14381;SDS011;7275;50.328;8.720;2023-08-30T04:50:40;3.47;;;2.83;;
14381;SDS011;7275;50.328;8.720;2023-08-30T04:53:09;3.17;;;2.87;;
14381;SDS011;7275;50.328;8.720;2023-08-30T04:55:36;2.97;;;2.60;;
14381;SDS011;7275;50.328;8.720;2023-08-30T04:58:04;3.87;;;2.80;;
14381;SDS011;7275;50.328;8.720;2023-08-30T05:00:32;2.93;;;2.63;;
14381;SDS011;7275;50.328;8.720;2023-08-30T05:02:59;4.00;;;2.53;;
14381;SDS011;7275;50.328;8.720;2023-08-30T05:05:27;3.23;;;2.93;;
14381;SDS011;7275;50.328;8.720;2023-08-30T05:07:55;3.17;;;2.87;;
14381;SDS011;7275;50.328;8.720;2023-08-30T05:10:23;3.33;;;3.03;;
14381;SDS011;7275;50.328;8.720;2023-08-30T05:12:51;6.17;;;2.97;;
14381;SDS011;7275;50.328;8.720;2023-08-30T05:15:18;5.00;;;3.40;;
14381;SDS011;7275;50.328;8.720;2023-08-30T05:17:46;4.80;;;3.40;;
14381;SDS011;7275;50.328;8.720;2023-08-30T05:20:14;4.80;;;3.20;;
14381;SDS011;7275;50.328;8.720;2023-08-30T05:22:41;3.80;;;3.40;;
14381;SDS011;7275;50.328;8.720;2023-08-30T05:25:09;3.70;;;3.17;;
14381;SDS011;7275;50.328;8.720;2023-08-30T05:27:38;4.13;;;3.70;;
14381;SDS011;7275;50.328;8.720;2023-08-30T05:30:06;4.10;;;3.70;;
14381;SDS011;7275;50.328;8.720;2023-08-30T05:32:34;5.30;;;4.23;;
14381;SDS011;7275;50.328;8.720;2023-08-30T05:35:01;5.73;;;4.00;;
14381;SDS011;7275;50.328;8.720;2023-08-30T05:37:29;5.10;;;3.90;;
14381;SDS011;7275;50.328;8.720;2023-08-30T05:39:56;4.27;;;3.83;;
14381;SDS011;7275;50.328;8.720;2023-08-30T05:42:24;4.70;;;4.23;;
14381;SDS011;7275;50.328;8.720;2023-08-30T05:44:54;5.63;;;4.10;;
14381;SDS011;7275;50.328;8.720;2023-08-30T05:47:21;6.97;;;4.37;;
14381;SDS011;7275;50.328;8.720;2023-08-30T05:49:49;4.80;;;4.00;;
14381;SDS011;7275;50.328;8.720;2023-08-30T05:52:16;4.37;;;4.00;;
14381;SDS011;7275;50.328;8.720;2023-08-30T05:54:44;4.90;;;4.30;;
14381;SDS011;7275;50.328;8.720;2023-08-30T05:57:11;4.57;;;4.17;;
14381;SDS011;7275;50.328;8.720;2023-08-30T05:59:39;4.40;;;4.00;;
14381;SDS011;7275;50.328;8.720;2023-08-30T06:02:08;4.33;;;3.87;;
14381;SDS011;7275;50.328;8.720;2023-08-30T06:04:36;5.07;;;4.00;;
14381;SDS011;7275;50.328;8.720;2023-08-30T06:07:04;5.20;;;4.07;;
14381;SDS011;7275;50.328;8.720;2023-08-30T06:09:31;4.97;;;4.00;;
14381;SDS011;7275;50.328;8.720;2023-08-30T06:11:59;4.53;;;4.13;;
14381;SDS011;7275;50.328;8.720;2023-08-30T06:14:26;5.17;;;4.67;;
14381;SDS011;7275;50.328;8.720;2023-08-30T06:16:54;5.87;;;4.63;;
14381;SDS011;7275;50.328;8.720;2023-08-30T06:19:23;5.67;;;4.60;;
14381;SDS011;7275;50.328;8.720;2023-08-30T06:21:50;5.23;;;4.63;;
14381;SDS011;7275;50.328;8.720;2023-08-30T06:24:18;5.00;;;4.50;;
14381;SDS011;7275;50.328;8.720;2023-08-30T06:26:45;5.20;;;4.70;;
14381;SDS011;7275;50.328;8.720;2023-08-30T06:29:13;5.20;;;4.50;;
14381;SDS011;7275;50.328;8.720;2023-08-30T06:31:40;6.07;;;4.90;;
14381;SDS011;7275;50.328;8.720;2023-08-30T06:34:08;5.13;;;4.60;;
14381;SDS011;7275;50.328;8.720;2023-08-30T06:36:37;4.77;;;4.37;;
14381;SDS011;7275;50.328;8.720;2023-08-30T06:39:05;6.43;;;4.97;;
14381;SDS011;7275;50.328;8.720;2023-08-30T06:41:32;5.60;;;4.50;;
14381;SDS011;7275;50.328;8.720;2023-08-30T06:44:00;6.53;;;4.60;;
14381;SDS011;7275;50.328;8.720;2023-08-30T06:46:27;5.37;;;4.50;;
14381;SDS011;7275;50.328;8.720;2023-08-30T06:48:55;6.67;;;5.50;;
14381;SDS011;7275;50.328;8.720;2023-08-30T06:51:22;6.07;;;5.47;;
14381;SDS011;7275;50.328;8.720;2023-08-30T06:53:51;6.00;;;5.33;;
14381;SDS011;7275;50.328;8.720;2023-08-30T06:56:21;14.27;;;9.33;;
14381;SDS011;7275;50.328;8.720;2023-08-30T06:58:48;10.97;;;8.70;;
14381;SDS011;7275;50.328;8.720;2023-08-30T07:01:16;16.77;;;9.03;;
14381;SDS011;7275;50.328;8.720;2023-08-30T07:03:44;15.53;;;11.63;;
14381;SDS011;7275;50.328;8.720;2023-08-30T07:06:11;18.97;;;13.30;;
14381;SDS011;7275;50.328;8.720;2023-08-30T07:08:39;17.53;;;13.13;;
14381;SDS011;7275;50.328;8.720;2023-08-30T07:11:08;18.20;;;12.83;;
14381;SDS011;7275;50.328;8.720;2023-08-30T07:13:55;14.83;;;12.33;;
14381;SDS011;7275;50.328;8.720;2023-08-30T07:16:23;16.67;;;12.83;;
14381;SDS011;7275;50.328;8.720;2023-08-30T07:18:50;15.57;;;12.13;;
14381;SDS011;7275;50.328;8.720;2023-08-30T07:21:18;15.97;;;12.73;;
14381;SDS011;7275;50.328;8.720;2023-08-30T07:23:45;15.80;;;13.40;;
14381;SDS011;7275;50.328;8.720;2023-08-30T07:26:14;16.73;;;13.80;;
14381;SDS011;7275;50.328;8.720;2023-08-30T07:28:42;16.23;;;13.37;;
14381;SDS011;7275;50.328;8.720;2023-08-30T07:31:09;14.60;;;12.50;;
14381;SDS011;7275;50.328;8.720;2023-08-30T07:33:40;14.37;;;12.87;;
14381;SDS011;7275;50.328;8.720;2023-08-30T07:36:07;14.80;;;12.37;;
14381;SDS011;7275;50.328;8.720;2023-08-30T07:38:35;15.03;;;12.27;;
14381;SDS011;7275;50.328;8.720;2023-08-30T07:41:02;15.53;;;12.80;;
14381;SDS011;7275;50.328;8.720;2023-08-30T07:43:31;14.00;;;11.70;;
14381;SDS011;7275;50.328;8.720;2023-08-30T07:45:59;13.53;;;12.03;;
14381;SDS011;7275;50.328;8.720;2023-08-30T07:48:27;14.00;;;11.87;;
14381;SDS011;7275;50.328;8.720;2023-08-30T07:50:55;15.47;;;12.50;;
14381;SDS011;7275;50.328;8.720;2023-08-30T07:53:22;13.40;;;11.70;;
14381;SDS011;7275;50.328;8.720;2023-08-30T07:55:50;14.90;;;12.10;;
14381;SDS011;7275;50.328;8.720;2023-08-30T07:58:18;13.37;;;11.70;;
14381;SDS011;7275;50.328;8.720;2023-08-30T08:00:49;13.13;;;11.77;;
14381;SDS011;7275;50.328;8.720;2023-08-30T08:03:17;13.47;;;11.83;;
14381;SDS011;7275;50.328;8.720;2023-08-30T08:05:45;13.47;;;11.77;;
14381;SDS011;7275;50.328;8.720;2023-08-30T08:08:13;14.03;;;12.53;;
14381;SDS011;7275;50.328;8.720;2023-08-30T08:10:42;14.20;;;12.27;;
14381;SDS011;7275;50.328;8.720;2023-08-30T08:13:10;12.73;;;11.43;;
14381;SDS011;7275;50.328;8.720;2023-08-30T08:15:39;12.43;;;11.23;;
14381;SDS011;7275;50.328;8.720;2023-08-30T08:18:08;11.70;;;10.57;;
14381;SDS011;7275;50.328;8.720;2023-08-30T08:20:37;11.20;;;10.03;;
14381;SDS011;7275;50.328;8.720;2023-08-30T08:23:05;11.30;;;10.20;;
14381;SDS011;7275;50.328;8.720;2023-08-30T08:25:33;11.53;;;10.43;;
14381;SDS011;7275;50.328;8.720;2023-08-30T08:28:01;9.90;;;8.90;;
14381;SDS011;7275;50.328;8.720;2023-08-30T08:30:29;11.00;;;9.90;;
14381;SDS011;7275;50.328;8.720;2023-08-30T08:32:57;10.83;;;9.77;;
14381;SDS011;7275;50.328;8.720;2023-08-30T08:35:26;10.73;;;9.73;;
14381;SDS011;7275;50.328;8.720;2023-08-30T08:37:53;11.63;;;10.43;;
14381;SDS011;7275;50.328;8.720;2023-08-30T08:40:21;11.73;;;10.63;;
14381;SDS011;7275;50.328;8.720;2023-08-30T08:43:07;10.10;;;9.20;;
14381;SDS011;7275;50.328;8.720;2023-08-30T08:45:38;10.40;;;9.23;;
14381;SDS011;7275;50.328;8.720;2023-08-30T08:48:06;9.70;;;8.87;;
14381;SDS011;7275;50.328;8.720;2023-08-30T08:50:36;9.30;;;8.50;;
14381;SDS011;7275;50.328;8.720;2023-08-30T08:53:04;9.37;;;8.57;;
14381;SDS011;7275;50.328;8.720;2023-08-30T08:55:33;9.20;;;8.33;;
14381;SDS011;7275;50.328;8.720;2023-08-30T08:58:02;7.70;;;7.00;;
14381;SDS011;7275;50.328;8.720;2023-08-30T09:00:31;8.13;;;7.33;;
14381;SDS011;7275;50.328;8.720;2023-08-30T09:02:59;7.78;;;7.07;;
14381;SDS011;7275;50.328;8.720;2023-08-30T09:05:27;7.20;;;6.60;;
14381;SDS011;7275;50.328;8.720;2023-08-30T09:07:57;6.90;;;6.18;;
14381;SDS011;7275;50.328;8.720;2023-08-30T09:10:25;6.63;;;6.03;;
14381;SDS011;7275;50.328;8.720;2023-08-30T09:12:53;7.15;;;6.45;;
14381;SDS011;7275;50.328;8.720;2023-08-30T09:15:20;7.85;;;6.45;;
14381;SDS011;7275;50.328;8.720;2023-08-30T09:17:48;6.90;;;6.20;;
14381;SDS011;7275;50.328;8.720;2023-08-30T09:20:16;7.07;;;6.38;;
14381;SDS011;7275;50.328;8.720;2023-08-30T09:22:46;7.10;;;6.40;;
14381;SDS011;7275;50.328;8.720;2023-08-30T09:25:23;7.90;;;6.38;;
14381;SDS011;7275;50.328;8.720;2023-08-30T09:27:56;6.75;;;6.07;;
14381;SDS011;7275;50.328;8.720;2023-08-30T09:30:24;6.15;;;5.55;;
14381;SDS011;7275;50.328;8.720;2023-08-30T09:32:52;7.95;;;6.13;;
14381;SDS011;7275;50.328;8.720;2023-08-30T09:35:20;6.38;;;5.78;;
14381;SDS011;7275;50.328;8.720;2023-08-30T09:37:47;6.35;;;5.75;;
14381;SDS011;7275;50.328;8.720;2023-08-30T09:40:18;6.53;;;5.93;;
14381;SDS011;7275;50.328;8.720;2023-08-30T09:42:47;6.55;;;5.55;;
14381;SDS011;7275;50.328;8.720;2023-08-30T09:45:35;6.15;;;5.55;;
14381;SDS011;7275;50.328;8.720;2023-08-30T09:48:03;5.60;;;5.10;;
14381;SDS011;7275;50.328;8.720;2023-08-30T09:50:33;5.95;;;5.38;;
14381;SDS011;7275;50.328;8.720;2023-08-30T09:53:02;6.38;;;4.85;;
14381;SDS011;7275;50.328;8.720;2023-08-30T09:55:35;5.63;;;5.13;;
14381;SDS011;7275;50.328;8.720;2023-08-30T09:58:04;5.30;;;4.85;;
14381;SDS011;7275;50.328;8.720;2023-08-30T10:00:32;5.68;;;4.97;;
14381;SDS011;7275;50.328;8.720;2023-08-30T10:03:00;5.45;;;4.95;;
14381;SDS011;7275;50.328;8.720;2023-08-30T10:05:48;5.22;;;4.72;;
14381;SDS011;7275;50.328;8.720;2023-08-30T10:08:16;5.80;;;5.10;;
14381;SDS011;7275;50.328;8.720;2023-08-30T10:10:46;5.13;;;4.55;;
14381;SDS011;7275;50.328;8.720;2023-08-30T10:13:16;4.70;;;4.30;;
14381;SDS011;7275;50.328;8.720;2023-08-30T10:15:46;5.20;;;4.32;;
14381;SDS011;7275;50.328;8.720;2023-08-30T10:18:18;5.03;;;4.63;;
14381;SDS011;7275;50.328;8.720;2023-08-30T10:20:49;4.93;;;4.13;;
14381;SDS011;7275;50.328;8.720;2023-08-30T10:23:20;4.50;;;4.10;;
14381;SDS011;7275;50.328;8.720;2023-08-30T10:25:49;4.90;;;3.72;;
14381;SDS011;7275;50.328;8.720;2023-08-30T10:28:20;4.25;;;3.85;;
14381;SDS011;7275;50.328;8.720;2023-08-30T10:30:50;4.00;;;3.60;;
14381;SDS011;7275;50.328;8.720;2023-08-30T10:33:18;4.57;;;4.03;;
14381;SDS011;7275;50.328;8.720;2023-08-30T10:35:51;4.43;;;4.03;;
14381;SDS011;7275;50.328;8.720;2023-08-30T10:38:25;4.35;;;3.97;;
14381;SDS011;7275;50.328;8.720;2023-08-30T10:40:54;4.35;;;3.50;;
14381;SDS011;7275;50.328;8.720;2023-08-30T10:43:29;3.58;;;3.28;;
14381;SDS011;7275;50.328;8.720;2023-08-30T10:46:01;3.85;;;3.45;;
14381;SDS011;7275;50.328;8.720;2023-08-30T10:48:39;5.07;;;3.40;;
14381;SDS011;7275;50.328;8.720;2023-08-30T10:51:19;4.65;;;3.95;;
14381;SDS011;7275;50.328;8.720;2023-08-30T10:53:57;4.35;;;3.85;;
14381;SDS011;7275;50.328;8.720;2023-08-30T10:56:28;5.53;;;3.60;;
14381;SDS011;7275;50.328;8.720;2023-08-30T10:58:58;3.80;;;3.50;;
14381;SDS011;7275;50.328;8.720;2023-08-30T11:01:25;3.55;;;3.25;;
14381;SDS011;7275;50.328;8.720;2023-08-30T11:03:54;3.30;;;3.00;;
14381;SDS011;7275;50.328;8.720;2023-08-30T11:06:39;3.30;;;3.00;;
14381;SDS011;7275;50.328;8.720;2023-08-30T11:09:07;3.47;;;3.03;;
14381;SDS011;7275;50.328;8.720;2023-08-30T11:11:36;3.13;;;2.83;;
14381;SDS011;7275;50.328;8.720;2023-08-30T11:14:06;3.75;;;3.13;;
14381;SDS011;7275;50.328;8.720;2023-08-30T11:16:33;2.97;;;2.42;;
14381;SDS011;7275;50.328;8.720;2023-08-30T11:19:01;4.30;;;2.60;;
14381;SDS011;7275;50.328;8.720;2023-08-30T11:21:30;2.90;;;2.50;;
14381;SDS011;7275;50.328;8.720;2023-08-30T11:23:59;3.08;;;2.78;;
14381;SDS011;7275;50.328;8.720;2023-08-30T11:26:26;3.92;;;2.20;;
14381;SDS011;7275;50.328;8.720;2023-08-30T11:28:54;2.60;;;2.30;;
14381;SDS011;7275;50.328;8.720;2023-08-30T11:31:23;3.63;;;2.50;;
14381;SDS011;7275;50.328;8.720;2023-08-30T11:33:54;3.58;;;2.33;;
14381;SDS011;7275;50.328;8.720;2023-08-30T11:36:23;4.10;;;2.28;;
14381;SDS011;7275;50.328;8.720;2023-08-30T11:38:53;4.07;;;2.60;;
14381;SDS011;7275;50.328;8.720;2023-08-30T11:41:21;3.47;;;2.30;;
14381;SDS011;7275;50.328;8.720;2023-08-30T11:43:49;3.22;;;2.10;;
14381;SDS011;7275;50.328;8.720;2023-08-30T11:46:17;4.45;;;2.30;;
14381;SDS011;7275;50.328;8.720;2023-08-30T11:48:47;3.28;;;2.60;;
14381;SDS011;7275;50.328;8.720;2023-08-30T11:51:16;3.08;;;2.50;;
14381;SDS011;7275;50.328;8.720;2023-08-30T11:53:44;2.80;;;2.53;;
14381;SDS011;7275;50.328;8.720;2023-08-30T11:56:12;2.45;;;2.25;;
14381;SDS011;7275;50.328;8.720;2023-08-30T11:58:40;2.42;;;2.22;;
14381;SDS011;7275;50.328;8.720;2023-08-30T12:01:08;2.50;;;2.30;;
14381;SDS011;7275;50.328;8.720;2023-08-30T12:03:35;3.88;;;2.40;;
14381;SDS011;7275;50.328;8.720;2023-08-30T12:06:08;2.17;;;1.92;;
14381;SDS011;7275;50.328;8.720;2023-08-30T12:08:38;4.55;;;2.53;;
14381;SDS011;7275;50.328;8.720;2023-08-30T12:11:16;3.45;;;2.30;;
14381;SDS011;7275;50.328;8.720;2023-08-30T12:13:45;2.40;;;2.13;;
14381;SDS011;7275;50.328;8.720;2023-08-30T12:16:16;2.80;;;2.50;;
14381;SDS011;7275;50.328;8.720;2023-08-30T12:18:45;2.55;;;2.30;;
14381;SDS011;7275;50.328;8.720;2023-08-30T12:21:14;2.90;;;2.67;;
14381;SDS011;7275;50.328;8.720;2023-08-30T12:23:42;2.55;;;2.28;;
14381;SDS011;7275;50.328;8.720;2023-08-30T12:26:10;2.50;;;2.30;;
14381;SDS011;7275;50.328;8.720;2023-08-30T12:28:38;3.35;;;2.50;;
14381;SDS011;7275;50.328;8.720;2023-08-30T12:31:07;2.88;;;2.58;;
14381;SDS011;7275;50.328;8.720;2023-08-30T12:33:35;3.28;;;2.40;;
14381;SDS011;7275;50.328;8.720;2023-08-30T12:36:03;2.85;;;2.60;;
14381;SDS011;7275;50.328;8.720;2023-08-30T12:38:33;3.65;;;2.40;;
14381;SDS011;7275;50.328;8.720;2023-08-30T12:41:01;2.85;;;2.20;;
14381;SDS011;7275;50.328;8.720;2023-08-30T12:43:28;2.85;;;2.47;;
14381;SDS011;7275;50.328;8.720;2023-08-30T12:45:56;2.63;;;2.42;;
14381;SDS011;7275;50.328;8.720;2023-08-30T12:48:23;3.00;;;2.55;;
14381;SDS011;7275;50.328;8.720;2023-08-30T12:50:51;3.38;;;2.60;;
14381;SDS011;7275;50.328;8.720;2023-08-30T12:53:18;5.03;;;2.72;;
14381;SDS011;7275;50.328;8.720;2023-08-30T12:55:47;3.70;;;2.75;;
14381;SDS011;7275;50.328;8.720;2023-08-30T12:58:15;2.78;;;2.50;;
14381;SDS011;7275;50.328;8.720;2023-08-30T13:00:42;3.47;;;2.83;;
14381;SDS011;7275;50.328;8.720;2023-08-30T13:03:10;4.65;;;2.60;;
14381;SDS011;7275;50.328;8.720;2023-08-30T13:05:38;2.90;;;2.50;;
14381;SDS011;7275;50.328;8.720;2023-08-30T13:08:05;3.15;;;2.67;;
14381;SDS011;7275;50.328;8.720;2023-08-30T13:10:33;4.35;;;2.47;;
14381;SDS011;7275;50.328;8.720;2023-08-30T13:13:02;2.67;;;2.30;;
14381;SDS011;7275;50.328;8.720;2023-08-30T13:15:30;5.75;;;2.92;;
14381;SDS011;7275;50.328;8.720;2023-08-30T13:17:57;3.08;;;2.60;;
14381;SDS011;7275;50.328;8.720;2023-08-30T13:20:25;3.28;;;2.60;;
14381;SDS011;7275;50.328;8.720;2023-08-30T13:22:53;9.18;;;2.83;;
14381;SDS011;7275;50.328;8.720;2023-08-30T13:25:20;3.35;;;2.90;;
14381;SDS011;7275;50.328;8.720;2023-08-30T13:27:48;3.08;;;2.78;;
14381;SDS011;7275;50.328;8.720;2023-08-30T13:30:17;4.10;;;3.00;;
14381;SDS011;7275;50.328;8.720;2023-08-30T13:32:44;4.22;;;2.80;;
14381;SDS011;7275;50.328;8.720;2023-08-30T13:35:12;4.55;;;2.85;;
14381;SDS011;7275;50.328;8.720;2023-08-30T13:37:40;3.17;;;2.88;;
14381;SDS011;7275;50.328;8.720;2023-08-30T13:40:07;3.90;;;3.50;;
14381;SDS011;7275;50.328;8.720;2023-08-30T13:42:35;3.47;;;3.17;;
14381;SDS011;7275;50.328;8.720;2023-08-30T13:45:03;5.45;;;3.53;;
14381;SDS011;7275;50.328;8.720;2023-08-30T13:47:33;4.93;;;3.38;;
14381;SDS011;7275;50.328;8.720;2023-08-30T13:50:01;3.80;;;3.40;;
14381;SDS011;7275;50.328;8.720;2023-08-30T13:52:30;6.80;;;3.08;;
14381;SDS011;7275;50.328;8.720;2023-08-30T13:54:57;4.78;;;3.10;;
14381;SDS011;7275;50.328;8.720;2023-08-30T13:57:25;3.20;;;2.88;;
14381;SDS011;7275;50.328;8.720;2023-08-30T13:59:52;3.38;;;2.83;;
14381;SDS011;7275;50.328;8.720;2023-08-30T14:02:20;3.17;;;2.88;;
14381;SDS011;7275;50.328;8.720;2023-08-30T14:04:50;4.50;;;2.80;;
14381;SDS011;7275;50.328;8.720;2023-08-30T14:07:18;3.65;;;2.85;;
14381;SDS011;7275;50.328;8.720;2023-08-30T14:09:45;3.72;;;2.90;;
14381;SDS011;7275;50.328;8.720;2023-08-30T14:12:13;3.38;;;2.95;;
14381;SDS011;7275;50.328;8.720;2023-08-30T14:14:41;6.97;;;3.00;;
14381;SDS011;7275;50.328;8.720;2023-08-30T14:17:08;3.88;;;3.05;;
14381;SDS011;7275;50.328;8.720;2023-08-30T14:19:36;3.60;;;2.80;;
14381;SDS011;7275;50.328;8.720;2023-08-30T14:22:05;4.03;;;2.75;;
14381;SDS011;7275;50.328;8.720;2023-08-30T14:24:32;2.65;;;2.45;;
14381;SDS011;7275;50.328;8.720;2023-08-30T14:27:17;3.53;;;2.83;;
14381;SDS011;7275;50.328;8.720;2023-08-30T14:29:44;3.10;;;2.80;;
14381;SDS011;7275;50.328;8.720;2023-08-30T14:32:12;3.75;;;2.97;;
14381;SDS011;7275;50.328;8.720;2023-08-30T14:34:39;3.80;;;2.67;;
14381;SDS011;7275;50.328;8.720;2023-08-30T14:37:08;3.17;;;2.80;;
14381;SDS011;7275;50.328;8.720;2023-08-30T14:39:35;4.70;;;2.90;;
14381;SDS011;7275;50.328;8.720;2023-08-30T14:42:03;3.40;;;3.00;;
14381;SDS011;7275;50.328;8.720;2023-08-30T14:44:31;2.80;;;2.60;;
14381;SDS011;7275;50.328;8.720;2023-08-30T14:46:58;4.93;;;3.10;;
14381;SDS011;7275;50.328;8.720;2023-08-30T14:49:26;3.35;;;2.72;;
14381;SDS011;7275;50.328;8.720;2023-08-30T14:51:54;3.30;;;2.97;;
14381;SDS011;7275;50.328;8.720;2023-08-30T14:54:22;3.65;;;2.95;;
14381;SDS011;7275;50.328;8.720;2023-08-30T14:56:50;3.38;;;2.78;;
14381;SDS011;7275;50.328;8.720;2023-08-30T14:59:17;3.40;;;3.05;;
14381;SDS011;7275;50.328;8.720;2023-08-30T15:01:45;3.85;;;2.90;;
14381;SDS011;7275;50.328;8.720;2023-08-30T15:04:13;2.88;;;2.60;;
14381;SDS011;7275;50.328;8.720;2023-08-30T15:06:40;3.10;;;2.80;;